Updated03/02/2024 3:29pm 
 

Nearby Airport METAR Reports

 

KVSF - Springfield, Vermont, USA
Distance from station: WSW 8mi, 12km
Updated: 03/02/2024 2:54pm
Overcast
Overcast
 Wind from calm
Wind: Calm
Temperature: 45°F , 7°C
Dew Point: 36°F , 2°C
Humidity: 71%
Barometer: 30.33 inHg , 1027.1 hPa
Clouds: Overcast
Visibility: 10 miles , 16 km
Cloud details: Overcast 2200 ft
2024/03/02 19:54 KVSF 021954Z AUTO 00000KT 10SM OVC022 07/02 A3033 RMK AO2 SLP277 T00670022
KLEB - Lebanon, New Hampshire, USA
Distance from station: N 18mi, 29km
Updated: 03/02/2024 2:53pm
Light rain, Overcast
Light rain, Overcast
 Wind from SSE
Wind: SSE 10 mph , 17 km/h
Temperature: 45°F , 7°C
Wind Chill: 40°F , 4°C
Dew Point: 37°F , 3°C
Humidity: 76%
Barometer: 30.31 inHg , 1026.4 hPa
Summary: Light rain
Clouds: Overcast
Visibility: 10 miles , 16 km
Cloud details: Overcast 2000 ft
2024/03/02 19:53 KLEB 021953Z 16009KT 10SM -RA OVC020 07/03 A3031 RMK AO2 SLP272 P0000 T00720028
KRUT - Rutland State, Vermont, USA
Distance from station: WNW 31mi, 50km
Updated: 03/02/2024 2:56pm
Light rain, Overcast
Light rain, Overcast
 Wind from SSE
Wind: SSE 6 mph , 9 km/h
Barometer: 30.29 inHg , 1025.7 hPa
Summary: Light rain
Clouds: Overcast
Visibility: 10 miles , 16 km
Cloud details: Overcast 2800 ft
2024/03/02 19:56 KRUT 021956Z AUTO 16005KT 10SM -RA OVC028 A3029 RMK AO2 SLPNO P0001 FZRANO $
 
KEEN - Keene/Dillant, New Hampshire, USA
Distance from station: S 34mi, 55km
Updated: 03/02/2024 3:28pm
Light rain, Overcast
Light rain, Overcast
 Wind from calm
Wind: Calm
Temperature: 45°F , 7°C
Dew Point: 43°F , 6°C
Humidity: 93%
Barometer: 30.31 inHg , 1026.4 hPa
Summary: Light rain
Clouds: Overcast
Visibility: 7 miles , 11 km
Cloud details: Overcast 1300 ft
2024/03/02 20:28 KEEN 022028Z AUTO 00000KT 7SM -RA OVC013 07/06 A3031 RMK AO2 P0001 $
K1P1 - Plymouth, New Hampshire, USA
Distance from station: NE 42mi, 67km
Updated: 03/02/2024 3:15pm
Light rain, Overcast
Light rain, Overcast
 Wind from calm
Wind: Calm
Temperature: 37°F , 3°C
Dew Point: 36°F , 2°C
Humidity: 93%
Barometer: 30.36 inHg , 1028.1 hPa
Summary: Light rain
Clouds: Overcast
Visibility: 10 miles , 16 km
Cloud details: Overcast 2800 ft
2024/03/02 20:15 K1P1 022015Z AUTO 00000KT 10SM -RA OVC028 03/02 A3036 RMK AO2 T00310017
KAFN - Jaffrey, New Hampshire, USA
Distance from station: SSE 44mi, 70km
Updated: 03/02/2024 2:52pm
Light rain, Mist, Overcast
Light rain, Mist, Overcast
 Wind from calm
Wind: Calm
Temperature: 45°F , 7°C
Dew Point: 39°F , 4°C
Humidity: 81%
Barometer: 30.33 inHg , 1027.1 hPa
Summary: Light rain, Mist
Clouds: Overcast
Visibility: 3 miles , 5 km
Cloud details: Overcast 600 ft
2024/03/02 19:52 KAFN 021952Z AUTO 00000KT 3SM -RA BR OVC006 07/04 A3033 RMK AO2 RAB1856 CIG 005V010 SLP283 P0001 T00670044
 
KCON - Concord, New Hampshire, USA
Distance from station: ESE 45mi, 73km
Updated: 03/02/2024 2:51pm
Light rain, Overcast
Light rain, Overcast
 Wind from SSE
Wind: SSE 5 mph , 7 km/h
Temperature: 45°F , 7°C
Wind Chill: 42°F , 6°C
Dew Point: 37°F , 3°C
Humidity: 76%
Barometer: 30.36 inHg , 1028.1 hPa
Summary: Light rain
Clouds: Overcast
Visibility: 10 miles , 16 km
Cloud details: Overcast 2000 ft
2024/03/02 19:51 KCON 021951Z AUTO 15004KT 10SM -RA OVC020 07/03 A3036 RMK AO2 RAB15 SLP285 P0000 T00670028
KLCI - Laconia Muni, New Hampshire, USA
Distance from station: ENE 49mi, 80km
Updated: 03/02/2024 2:56pm
Light rain, Overcast
Light rain, Overcast
 Wind from calm
Wind: Calm
Temperature: 39°F , 4°C
Dew Point: 34°F , 1°C
Humidity: 81%
Barometer: 30.36 inHg , 1028.1 hPa
Summary: Light rain
Clouds: Overcast
Visibility: 6 miles , 10 km
Cloud details: Overcast 2200 ft
2024/03/02 19:56 KLCI 021956Z AUTO 00000KT 6SM -RA OVC022 04/01 A3036 RMK AO2 RAB26 SLP287 P0001 T00390011 $
KDDH - Bennington, Vermont, USA
Distance from station: SW 55mi, 89km
Updated: 03/02/2024 2:54pm
Light rain, Overcast
Light rain, Overcast
 Wind from calm
Wind: Calm
Temperature: 46°F , 8°C
Dew Point: 41°F , 5°C
Humidity: 82%
Barometer: 30.26 inHg , 1024.7 hPa
Summary: Light rain
Clouds: Overcast
Visibility: 10 miles , 16 km
Cloud details: Overcast 1900 ft
2024/03/02 19:54 KDDH 021954Z AUTO 00000KT 10SM -RA OVC019 08/05 A3026 RMK AO2 SLP251 P0000 T00830050
 
K6B0 - Middlebury, Vermont, USA
Distance from station: NW 56mi, 90km
Updated: 03/02/2024 3:15pm
Light rain, Overcast
Light rain, Overcast
 Wind from calm
Wind: Calm
Temperature: 41°F , 5°C
Dew Point: 37°F , 3°C
Humidity: 87%
Barometer: 30.28 inHg , 1025.4 hPa
Summary: Light rain
Clouds: Overcast
Visibility: 10 miles , 16 km
Cloud details: Overcast 2500 ft
2024/03/02 20:15 K6B0 022015Z AUTO 00000KT 10SM -RA OVC025 05/03 A3028 RMK AO2 T00500027
KMHT - Manchester, New Hampshire, USA
Distance from station: ESE 56mi, 90km
Updated: 03/02/2024 2:53pm
Light rain, Mist, Overcast
Light rain, Mist, Overcast
 Wind from calm
Wind: Calm
Temperature: 45°F , 7°C
Dew Point: 39°F , 4°C
Humidity: 81%
Barometer: 30.36 inHg , 1028.1 hPa
Summary: Light rain, Mist
Clouds: Overcast
Visibility: 5 miles , 8 km
Cloud details: Few Clouds 500 ft
Overcast 1400 ft
2024/03/02 19:53 KMHT 021953Z 00000KT 5SM -RA BR FEW005 OVC014 07/04 A3036 RMK AO2 SLP297 P0001 T00720044
KORE - Orange, Massachusetts, USA
Distance from station: S 56mi, 90km
Updated: 03/02/2024 3:17pm
Light rain, Mist, Overcast
Light rain, Mist, Overcast
 Wind from calm
Wind: Calm
Temperature: 45°F , 7°C
Dew Point: 43°F , 6°C
Humidity: 93%
Barometer: 30.32 inHg , 1026.8 hPa
Summary: Light rain, Mist
Clouds: Overcast
Visibility: 6 miles , 10 km
Cloud details: Overcast 900 ft
2024/03/02 20:17 KORE 022017Z AUTO 00000KT 6SM -RA BR OVC009 07/06 A3032 RMK AO2 P0001 T00720061
 
KMPV - Montpelier/Barre, Vermont, USA
Distance from station: N 58mi, 93km
Updated: 03/02/2024 3:09pm
Overcast
Overcast
 Wind from S
Wind: S 10 mph , 17 km/h
Temperature: 43°F , 6°C
Wind Chill: 37°F , 3°C
Dew Point: 32°F , 0°C
Humidity: 66%
Barometer: 30.31 inHg , 1026.4 hPa
Clouds: Overcast
Visibility: 10 miles , 16 km
Cloud details: Mostly cloudy 2900 ft
Mostly cloudy 4000 ft
Overcast 6000 ft
2024/03/02 20:09 KMPV 022009Z AUTO 18009KT 10SM BKN029 BKN040 OVC060 06/00 A3031 RMK AO2 T00610000
KASH - Nashua/Boire Fld, New Hampshire, USA
Distance from station: SE 59mi, 95km
Updated: 03/02/2024 2:56pm
Light rain, Overcast
Light rain, Overcast
 Wind from ESE
Wind: ESE 5 mph , 7 km/h
Temperature: 45°F , 7°C
Wind Chill: 42°F , 6°C
Dew Point: 45°F , 7°C
Humidity: 100%
Barometer: 30.37 inHg , 1028.4 hPa
Summary: Light rain
Clouds: Overcast
Visibility: 7 miles , 11 km
Cloud details: Overcast 1400 ft
2024/03/02 19:56 KASH 021956Z 12004KT 7SM -RA OVC014 07/07 A3037 RMK AO2 RAB01 SLP291 P0000 T00720072
KAQW - North Adams, Massachusetts, USA
Distance from station: SW 62mi, 99km
Updated: 03/02/2024 2:52pm
Light rain, Overcast
Light rain, Overcast
 Wind from E
Wind: E 9 mph , 15 km/h
Temperature: 46°F , 8°C
Wind Chill: 41°F , 5°C
Dew Point: 41°F , 5°C
Humidity: 82%
Barometer: 30.27 inHg , 1025.1 hPa
Summary: Light rain
Clouds: Overcast
Visibility: 10 miles , 16 km
Cloud details: Mostly cloudy 2500 ft
Overcast 3300 ft
2024/03/02 19:52 KAQW 021952Z AUTO 08008KT 10SM -RA BKN025 OVC033 08/05 A3027 RMK AO2 RAB1853 SLP257 P0001 T00830050
 
KGFL - Glens Falls, New York, USA
Distance from station: W 63mi, 101km
Updated: 03/02/2024 2:53pm
Light rain, Mist, Overcast
Light rain, Mist, Overcast
 Wind from calm
Wind: Calm
Temperature: 43°F , 6°C
Dew Point: 41°F , 5°C
Humidity: 93%
Barometer: 30.29 inHg , 1025.7 hPa
Summary: Light rain, Mist
Clouds: Overcast
Visibility: 6 miles , 10 km
Cloud details: Mostly cloudy 700 ft
Overcast 2100 ft
2024/03/02 19:53 KGFL 021953Z AUTO 00000KT 6SM -RA BR BKN007 OVC021 06/05 A3029 RMK AO2 CIG 006V010 SLP264 P0003 T00560050
KFIT - Fitchburg, Massachusetts, USA
Distance from station: SSE 65mi, 105km
Updated: 03/02/2024 2:52pm
Light rain, Overcast
Light rain, Overcast
 Wind from ESE
Wind: ESE 3 mph , 6 km/h
Temperature: 46°F , 8°C
Dew Point: 39°F , 4°C
Humidity: 76%
Barometer: 30.35 inHg , 1027.8 hPa
Summary: Light rain
Clouds: Overcast
Visibility: 9 miles , 14 km
Cloud details: Overcast 1300 ft
2024/03/02 19:52 KFIT 021952Z AUTO 11003KT 9SM -RA OVC013 08/04 A3035 RMK AO2 RAB08 SLP282 P0000 T00830044
KDAW - Rochester, New Hampshire, USA
Distance from station: E 73mi, 118km
Updated: 03/02/2024 3:25pm
Light rain, Overcast
Light rain, Overcast
 Wind from SE
Wind: SE 5 mph , 7 km/h
Temperature: 43°F , 6°C
Wind Chill: 40°F , 4°C
Dew Point: 39°F , 4°C
Humidity: 87%
Barometer: 30.37 inHg , 1028.4 hPa
Summary: Light rain
Clouds: Overcast
Visibility: 7 miles , 11 km
Cloud details: Partly cloudy 700 ft
Mostly cloudy 1300 ft
Overcast 2900 ft
2024/03/02 20:25 KDAW 022025Z AUTO 13004KT 7SM -RA SCT007 BKN013 OVC029 06/04 A3037 RMK AO2 P0000 T00610039
 
K1V4 - St. Johnsbury, Vermont, USA
Distance from station: NNE 74mi, 119km
Updated: 03/02/2024 2:54pm

 
Temperature: 45°F , 7°C
Dew Point: 30°F , -1°C
Humidity: 57%
Barometer: 30.28 inHg , 1025.4 hPa
2024/03/02 19:54 K1V4 021954Z AUTO 07/M01 A3028 RMK AO1 SLP265 T00671006
KLWM - Lawrence, Massachusetts, USA
Distance from station: SE 77mi, 124km
Updated: 03/02/2024 2:54pm
Light rain, Overcast
Light rain, Overcast
 Wind from ESE
Wind: ESE 6 mph , 9 km/h
Temperature: 45°F , 7°C
Wind Chill: 42°F , 6°C
Dew Point: 39°F , 4°C
Humidity: 81%
Barometer: 30.38 inHg , 1028.8 hPa
Summary: Light rain
Clouds: Overcast
Visibility: 10 miles , 16 km
Cloud details: Overcast 1800 ft
2024/03/02 19:54 KLWM 021954Z 11005KT 10SM -RA OVC018 07/04 A3038 RMK AO2 RAB15 SLP290 P0000 T00720044



Flag Counter
free counter page views since 4/29/2009